sensor_id;sensor_type;location;lat;lon;timestamp;pressure;altitude;pressure_sealevel;temperature;humidity
30875;BME280;17581;43.222;27.924;2023-07-29T00:00:37;100491.84;;;21.58;76.38
30875;BME280;17581;43.222;27.924;2023-07-29T00:03:02;100491.84;;;21.58;76.53
30875;BME280;17581;43.222;27.924;2023-07-29T00:05:28;100493.34;;;21.60;76.06
30875;BME280;17581;43.222;27.924;2023-07-29T00:07:53;100483.31;;;21.67;76.00
30875;BME280;17581;43.222;27.924;2023-07-29T00:10:18;100471.63;;;21.52;75.84
30875;BME280;17581;43.222;27.924;2023-07-29T00:12:44;100483.47;;;21.66;75.84
30875;BME280;17581;43.222;27.924;2023-07-29T00:15:11;100450.69;;;21.45;75.67
30875;BME280;17581;43.222;27.924;2023-07-29T00:17:36;100469.09;;;21.57;75.25
30875;BME280;17581;43.222;27.924;2023-07-29T00:20:02;100479.25;;;21.63;75.03
30875;BME280;17581;43.222;27.924;2023-07-29T00:22:28;100475.22;;;21.59;75.38
30875;BME280;17581;43.222;27.924;2023-07-29T00:24:53;100466.78;;;21.54;75.72
30875;BME280;17581;43.222;27.924;2023-07-29T00:27:23;100483.84;;;21.56;76.00
30875;BME280;17581;43.222;27.924;2023-07-29T00:29:49;100479.41;;;21.55;75.85
30875;BME280;17581;43.222;27.924;2023-07-29T00:32:14;100444.53;;;21.36;76.03
30875;BME280;17581;43.222;27.924;2023-07-29T00:34:40;100429.56;;;21.32;76.10
30875;BME280;17581;43.222;27.924;2023-07-29T00:37:05;100468.81;;;21.46;76.12
30875;BME280;17581;43.222;27.924;2023-07-29T00:39:31;100461.66;;;21.45;76.47
30875;BME280;17581;43.222;27.924;2023-07-29T00:41:57;100465.00;;;21.47;76.44
30875;BME280;17581;43.222;27.924;2023-07-29T00:44:23;100452.53;;;21.38;76.91
30875;BME280;17581;43.222;27.924;2023-07-29T00:46:50;100423.84;;;21.27;77.01
30875;BME280;17581;43.222;27.924;2023-07-29T00:49:17;100446.38;;;21.29;76.97
30875;BME280;17581;43.222;27.924;2023-07-29T00:51:43;100454.41;;;21.31;77.36
30875;BME280;17581;43.222;27.924;2023-07-29T00:54:08;100445.97;;;21.32;77.26
30875;BME280;17581;43.222;27.924;2023-07-29T00:56:34;100431.75;;;21.15;77.13
30875;BME280;17581;43.222;27.924;2023-07-29T00:59:01;100442.75;;;21.22;77.01
30875;BME280;17581;43.222;27.924;2023-07-29T01:01:28;100452.22;;;21.26;77.17
30875;BME280;17581;43.222;27.924;2023-07-29T01:03:54;100446.72;;;21.20;76.80
30875;BME280;17581;43.222;27.924;2023-07-29T01:06:46;100455.38;;;21.23;76.80
30875;BME280;17581;43.222;27.924;2023-07-29T01:15:24;100444.19;;;21.18;76.38
30875;BME280;17581;43.222;27.924;2023-07-29T01:17:55;100444.31;;;21.10;76.55
30875;BME280;17581;43.222;27.924;2023-07-29T01:20:21;100442.41;;;21.10;76.66
30875;BME280;17581;43.222;27.924;2023-07-29T01:22:49;100440.25;;;21.06;76.85
30875;BME280;17581;43.222;27.924;2023-07-29T01:25:14;100433.25;;;20.97;77.33
30875;BME280;17581;43.222;27.924;2023-07-29T01:27:42;100421.31;;;20.83;77.53
30875;BME280;17581;43.222;27.924;2023-07-29T01:30:08;100403.19;;;20.76;77.16
30875;BME280;17581;43.222;27.924;2023-07-29T01:37:38;100430.69;;;20.95;77.35
30875;BME280;17581;43.222;27.924;2023-07-29T01:40:07;100437.78;;;20.90;77.58
30875;BME280;17581;43.222;27.924;2023-07-29T01:42:34;100423.28;;;20.89;77.53
30875;BME280;17581;43.222;27.924;2023-07-29T01:44:59;100436.16;;;20.95;77.32
30875;BME280;17581;43.222;27.924;2023-07-29T01:47:25;100424.91;;;20.84;77.40
30875;BME280;17581;43.222;27.924;2023-07-29T01:49:51;100427.06;;;20.88;77.21
30875;BME280;17581;43.222;27.924;2023-07-29T01:52:16;100437.53;;;20.85;77.23
30875;BME280;17581;43.222;27.924;2023-07-29T01:54:42;100430.84;;;20.87;76.81
30875;BME280;17581;43.222;27.924;2023-07-29T01:57:07;100433.31;;;20.82;77.17
30875;BME280;17581;43.222;27.924;2023-07-29T01:59:33;100396.03;;;20.53;77.58
30875;BME280;17581;43.222;27.924;2023-07-29T02:01:58;100439.75;;;20.75;77.66
30875;BME280;17581;43.222;27.924;2023-07-29T02:04:23;100438.72;;;20.76;77.45
30875;BME280;17581;43.222;27.924;2023-07-29T02:06:49;100426.28;;;20.73;77.24
30875;BME280;17581;43.222;27.924;2023-07-29T02:09:14;100434.75;;;20.78;77.25
30875;BME280;17581;43.222;27.924;2023-07-29T02:11:40;100437.88;;;20.75;77.30
30875;BME280;17581;43.222;27.924;2023-07-29T02:14:05;100433.25;;;20.76;77.04
30875;BME280;17581;43.222;27.924;2023-07-29T02:16:31;100439.50;;;20.70;77.58
30875;BME280;17581;43.222;27.924;2023-07-29T02:18:57;100437.72;;;20.62;77.76
30875;BME280;17581;43.222;27.924;2023-07-29T02:21:23;100431.00;;;20.64;78.06
30875;BME280;17581;43.222;27.924;2023-07-29T02:23:48;100427.19;;;20.59;78.12
30875;BME280;17581;43.222;27.924;2023-07-29T02:26:14;100420.47;;;20.61;78.03
30875;BME280;17581;43.222;27.924;2023-07-29T02:28:39;100431.16;;;20.78;77.71
30875;BME280;17581;43.222;27.924;2023-07-29T02:31:24;100429.06;;;20.80;78.03
30875;BME280;17581;43.222;27.924;2023-07-29T02:33:50;100411.09;;;20.71;78.24
30875;BME280;17581;43.222;27.924;2023-07-29T02:36:16;100418.91;;;20.74;77.49
30875;BME280;17581;43.222;27.924;2023-07-29T02:38:42;100393.06;;;20.55;77.10
30875;BME280;17581;43.222;27.924;2023-07-29T02:41:09;100415.41;;;20.58;76.91
30875;BME280;17581;43.222;27.924;2023-07-29T02:43:36;100426.72;;;20.55;77.51
30875;BME280;17581;43.222;27.924;2023-07-29T02:46:02;100412.94;;;20.42;77.63
30875;BME280;17581;43.222;27.924;2023-07-29T02:48:28;100419.03;;;20.44;76.96
30875;BME280;17581;43.222;27.924;2023-07-29T02:50:55;100443.78;;;20.57;76.54
30875;BME280;17581;43.222;27.924;2023-07-29T02:53:22;100443.25;;;20.47;76.96
30875;BME280;17581;43.222;27.924;2023-07-29T02:55:47;100421.53;;;20.39;76.94
30875;BME280;17581;43.222;27.924;2023-07-29T02:58:13;100449.25;;;20.57;77.52
30875;BME280;17581;43.222;27.924;2023-07-29T03:00:38;100451.06;;;20.50;77.58
30875;BME280;17581;43.222;27.924;2023-07-29T03:03:07;100423.19;;;20.40;77.30
30875;BME280;17581;43.222;27.924;2023-07-29T03:05:33;100448.13;;;20.52;77.29
30875;BME280;17581;43.222;27.924;2023-07-29T03:07:58;100439.66;;;20.47;78.16
30875;BME280;17581;43.222;27.924;2023-07-29T03:10:24;100442.25;;;20.55;78.49
30875;BME280;17581;43.222;27.924;2023-07-29T03:12:49;100434.44;;;20.52;79.41
30875;BME280;17581;43.222;27.924;2023-07-29T03:15:15;100434.66;;;20.50;79.94
30875;BME280;17581;43.222;27.924;2023-07-29T03:17:40;100433.34;;;20.46;80.35
30875;BME280;17581;43.222;27.924;2023-07-29T03:20:06;100433.94;;;20.42;80.85
30875;BME280;17581;43.222;27.924;2023-07-29T03:22:32;100435.19;;;20.39;80.95
30875;BME280;17581;43.222;27.924;2023-07-29T03:24:57;100440.09;;;20.29;80.87
30875;BME280;17581;43.222;27.924;2023-07-29T03:27:22;100448.28;;;20.29;81.28
30875;BME280;17581;43.222;27.924;2023-07-29T03:29:48;100443.22;;;20.26;81.31
30875;BME280;17581;43.222;27.924;2023-07-29T03:32:13;100448.66;;;20.26;81.02
30875;BME280;17581;43.222;27.924;2023-07-29T03:34:39;100441.84;;;20.22;80.88
30875;BME280;17581;43.222;27.924;2023-07-29T03:37:05;100433.78;;;20.14;81.00
30875;BME280;17581;43.222;27.924;2023-07-29T03:39:31;100444.59;;;20.22;81.35
30875;BME280;17581;43.222;27.924;2023-07-29T03:41:57;100446.09;;;20.25;81.50
30875;BME280;17581;43.222;27.924;2023-07-29T03:44:22;100444.91;;;20.27;81.45
30875;BME280;17581;43.222;27.924;2023-07-29T03:46:48;100425.69;;;20.21;81.05
30875;BME280;17581;43.222;27.924;2023-07-29T03:49:13;100439.72;;;20.32;80.64
30875;BME280;17581;43.222;27.924;2023-07-29T03:51:39;100456.06;;;20.47;80.17
30875;BME280;17581;43.222;27.924;2023-07-29T03:54:04;100456.91;;;20.47;80.18
30875;BME280;17581;43.222;27.924;2023-07-29T03:56:29;100450.41;;;20.48;80.09
30875;BME280;17581;43.222;27.924;2023-07-29T03:59:03;100426.97;;;20.39;79.52
30875;BME280;17581;43.222;27.924;2023-07-29T04:01:28;100454.50;;;20.59;79.06
30875;BME280;17581;43.222;27.924;2023-07-29T04:03:54;100459.72;;;20.54;79.68
30875;BME280;17581;43.222;27.924;2023-07-29T04:06:20;100457.06;;;20.60;79.73
30875;BME280;17581;43.222;27.924;2023-07-29T04:08:46;100425.34;;;20.45;79.90
30875;BME280;17581;43.222;27.924;2023-07-29T04:11:11;100458.34;;;20.64;79.67
30875;BME280;17581;43.222;27.924;2023-07-29T04:13:37;100462.25;;;20.77;79.76
30875;BME280;17581;43.222;27.924;2023-07-29T04:16:04;100463.19;;;20.84;79.64
30875;BME280;17581;43.222;27.924;2023-07-29T04:18:29;100420.09;;;20.64;79.42
30875;BME280;17581;43.222;27.924;2023-07-29T04:20:54;100460.59;;;20.97;79.24
30875;BME280;17581;43.222;27.924;2023-07-29T04:23:20;100461.22;;;20.99;79.17
30875;BME280;17581;43.222;27.924;2023-07-29T04:25:45;100464.19;;;21.04;79.29
30875;BME280;17581;43.222;27.924;2023-07-29T04:28:11;100458.56;;;21.05;79.72
30875;BME280;17581;43.222;27.924;2023-07-29T04:30:36;100472.84;;;21.22;79.25
30875;BME280;17581;43.222;27.924;2023-07-29T04:33:02;100461.75;;;21.30;79.18
30875;BME280;17581;43.222;27.924;2023-07-29T04:35:28;100451.34;;;21.19;78.75
30875;BME280;17581;43.222;27.924;2023-07-29T04:37:53;100469.16;;;21.36;78.55
30875;BME280;17581;43.222;27.924;2023-07-29T04:40:18;100468.56;;;21.41;77.92
30875;BME280;17581;43.222;27.924;2023-07-29T04:42:44;100471.41;;;21.54;77.94
30875;BME280;17581;43.222;27.924;2023-07-29T04:45:09;100466.38;;;21.57;77.44
30875;BME280;17581;43.222;27.924;2023-07-29T04:47:35;100472.97;;;21.69;77.04
30875;BME280;17581;43.222;27.924;2023-07-29T04:50:00;100481.28;;;21.83;76.66
30875;BME280;17581;43.222;27.924;2023-07-29T04:52:26;100487.66;;;21.90;76.13
30875;BME280;17581;43.222;27.924;2023-07-29T04:54:51;100483.09;;;21.97;75.56
30875;BME280;17581;43.222;27.924;2023-07-29T04:57:17;100494.94;;;22.04;75.17
30875;BME280;17581;43.222;27.924;2023-07-29T04:59:42;100472.97;;;21.97;74.51
30875;BME280;17581;43.222;27.924;2023-07-29T05:02:07;100480.81;;;22.07;74.29
30875;BME280;17581;43.222;27.924;2023-07-29T05:04:33;100484.88;;;22.17;74.18
30875;BME280;17581;43.222;27.924;2023-07-29T05:06:58;100492.97;;;22.32;73.92
30875;BME280;17581;43.222;27.924;2023-07-29T05:09:24;100486.66;;;22.38;73.45
30875;BME280;17581;43.222;27.924;2023-07-29T05:11:49;100486.06;;;22.49;73.14
30875;BME280;17581;43.222;27.924;2023-07-29T05:14:15;100469.41;;;22.51;72.15
30875;BME280;17581;43.222;27.924;2023-07-29T05:16:41;100487.16;;;22.61;71.96
30875;BME280;17581;43.222;27.924;2023-07-29T05:19:07;100488.47;;;22.72;71.12
30875;BME280;17581;43.222;27.924;2023-07-29T05:21:32;100486.00;;;22.84;70.54
30875;BME280;17581;43.222;27.924;2023-07-29T05:23:58;100483.91;;;22.92;70.54
30875;BME280;17581;43.222;27.924;2023-07-29T05:26:24;100489.63;;;23.04;69.72
30875;BME280;17581;43.222;27.924;2023-07-29T05:28:49;100480.09;;;23.06;68.60
30875;BME280;17581;43.222;27.924;2023-07-29T05:31:14;100489.84;;;23.22;67.87
30875;BME280;17581;43.222;27.924;2023-07-29T05:33:40;100491.13;;;23.26;67.50
30875;BME280;17581;43.222;27.924;2023-07-29T05:36:05;100487.72;;;23.30;66.86
30875;BME280;17581;43.222;27.924;2023-07-29T05:38:31;100467.69;;;23.30;65.90
30875;BME280;17581;43.222;27.924;2023-07-29T05:40:56;100465.78;;;23.37;65.15
30875;BME280;17581;43.222;27.924;2023-07-29T05:43:24;100482.69;;;23.60;64.46
30875;BME280;17581;43.222;27.924;2023-07-29T05:45:50;100474.03;;;23.63;64.47
30875;BME280;17581;43.222;27.924;2023-07-29T05:48:16;100432.00;;;23.43;63.69
30875;BME280;17581;43.222;27.924;2023-07-29T05:50:41;100477.59;;;23.70;63.22
30875;BME280;17581;43.222;27.924;2023-07-29T05:53:07;100479.72;;;23.81;62.20
30875;BME280;17581;43.222;27.924;2023-07-29T05:55:32;100470.38;;;23.82;61.91
30875;BME280;17581;43.222;27.924;2023-07-29T05:57:58;100460.91;;;23.85;61.88
30875;BME280;17581;43.222;27.924;2023-07-29T06:00:23;100452.84;;;23.90;62.11
30875;BME280;17581;43.222;27.924;2023-07-29T06:02:49;100473.31;;;24.14;61.99
30875;BME280;17581;43.222;27.924;2023-07-29T06:05:14;100475.78;;;24.22;61.52
30875;BME280;17581;43.222;27.924;2023-07-29T06:07:40;100463.13;;;24.21;61.67
30875;BME280;17581;43.222;27.924;2023-07-29T06:10:10;100475.56;;;24.30;61.52
30875;BME280;17581;43.222;27.924;2023-07-29T06:12:37;100484.00;;;24.35;61.16
30875;BME280;17581;43.222;27.924;2023-07-29T06:15:03;100479.53;;;24.41;61.06
30875;BME280;17581;43.222;27.924;2023-07-29T06:17:28;100482.06;;;24.49;60.60
30875;BME280;17581;43.222;27.924;2023-07-29T06:19:54;100481.38;;;24.53;60.43
30875;BME280;17581;43.222;27.924;2023-07-29T06:22:19;100460.47;;;24.52;60.27
30875;BME280;17581;43.222;27.924;2023-07-29T06:24:45;100479.81;;;24.70;60.11
30875;BME280;17581;43.222;27.924;2023-07-29T06:27:10;100473.00;;;24.79;60.15
30875;BME280;17581;43.222;27.924;2023-07-29T06:29:36;100462.00;;;24.79;59.61
30875;BME280;17581;43.222;27.924;2023-07-29T06:32:01;100474.88;;;24.92;59.58
30875;BME280;17581;43.222;27.924;2023-07-29T06:34:27;100470.41;;;24.91;59.65
30875;BME280;17581;43.222;27.924;2023-07-29T06:36:52;100464.47;;;24.94;59.62
30875;BME280;17581;43.222;27.924;2023-07-29T06:39:17;100479.66;;;25.03;59.81
30875;BME280;17581;43.222;27.924;2023-07-29T06:41:43;100485.88;;;25.17;60.50
30875;BME280;17581;43.222;27.924;2023-07-29T06:44:08;100484.97;;;25.23;59.99
30875;BME280;17581;43.222;27.924;2023-07-29T06:46:34;100486.41;;;25.32;59.23
30875;BME280;17581;43.222;27.924;2023-07-29T06:48:59;100462.84;;;25.36;59.06
30875;BME280;17581;43.222;27.924;2023-07-29T06:51:24;100473.91;;;25.61;57.93
30875;BME280;17581;43.222;27.924;2023-07-29T06:53:50;100455.75;;;25.53;57.24
30875;BME280;17581;43.222;27.924;2023-07-29T06:56:16;100479.03;;;25.75;57.45
30875;BME280;17581;43.222;27.924;2023-07-29T06:58:41;100454.78;;;25.66;57.68
30875;BME280;17581;43.222;27.924;2023-07-29T07:01:06;100474.00;;;25.90;57.18
30875;BME280;17581;43.222;27.924;2023-07-29T07:03:32;100473.28;;;26.02;56.31
30875;BME280;17581;43.222;27.924;2023-07-29T07:05:57;100476.09;;;26.13;56.91
30875;BME280;17581;43.222;27.924;2023-07-29T07:08:23;100481.19;;;26.16;56.25
30875;BME280;17581;43.222;27.924;2023-07-29T07:10:48;100474.75;;;26.22;56.35
30875;BME280;17581;43.222;27.924;2023-07-29T07:13:14;100456.75;;;26.20;56.47
30875;BME280;17581;43.222;27.924;2023-07-29T07:15:39;100461.09;;;26.27;55.91
30875;BME280;17581;43.222;27.924;2023-07-29T07:18:04;100475.59;;;26.41;55.78
30875;BME280;17581;43.222;27.924;2023-07-29T07:20:30;100443.25;;;26.30;55.74
30875;BME280;17581;43.222;27.924;2023-07-29T07:22:55;100482.75;;;26.60;54.96
30875;BME280;17581;43.222;27.924;2023-07-29T07:25:21;100483.41;;;26.74;54.94
30875;BME280;17581;43.222;27.924;2023-07-29T07:27:47;100471.53;;;26.73;54.35
30875;BME280;17581;43.222;27.924;2023-07-29T07:30:14;100447.63;;;26.67;54.43
30875;BME280;17581;43.222;27.924;2023-07-29T07:32:39;100480.03;;;26.90;53.70
30875;BME280;17581;43.222;27.924;2023-07-29T07:35:05;100473.66;;;26.89;52.86
30875;BME280;17581;43.222;27.924;2023-07-29T07:37:31;100459.75;;;26.84;52.98
30875;BME280;17581;43.222;27.924;2023-07-29T07:39:58;100437.03;;;26.82;52.87
30875;BME280;17581;43.222;27.924;2023-07-29T07:42:23;100469.28;;;27.12;52.27
30875;BME280;17581;43.222;27.924;2023-07-29T07:44:49;100478.44;;;27.24;51.84
30875;BME280;17581;43.222;27.924;2023-07-29T07:47:14;100461.88;;;27.24;51.17
30875;BME280;17581;43.222;27.924;2023-07-29T07:49:40;100468.75;;;27.33;50.90
30875;BME280;17581;43.222;27.924;2023-07-29T07:52:05;100472.97;;;27.47;51.12
30875;BME280;17581;43.222;27.924;2023-07-29T07:54:31;100479.25;;;27.54;50.30
30875;BME280;17581;43.222;27.924;2023-07-29T07:56:57;100446.09;;;27.54;49.00
30875;BME280;17581;43.222;27.924;2023-07-29T07:59:23;100459.19;;;27.70;47.86
30875;BME280;17581;43.222;27.924;2023-07-29T08:01:48;100455.94;;;27.73;46.85
30875;BME280;17581;43.222;27.924;2023-07-29T08:04:14;100444.16;;;27.66;46.67
30875;BME280;17581;43.222;27.924;2023-07-29T08:06:39;100454.00;;;27.85;47.05
30875;BME280;17581;43.222;27.924;2023-07-29T08:09:05;100434.53;;;27.80;46.65
30875;BME280;17581;43.222;27.924;2023-07-29T08:11:30;100449.91;;;27.99;45.84
30875;BME280;17581;43.222;27.924;2023-07-29T08:13:56;100430.19;;;28.07;46.02
30875;BME280;17581;43.222;27.924;2023-07-29T08:16:21;100443.66;;;28.16;44.03
30875;BME280;17581;43.222;27.924;2023-07-29T08:18:47;100444.81;;;28.20;43.79
30875;BME280;17581;43.222;27.924;2023-07-29T08:21:12;100434.25;;;28.17;43.30
30875;BME280;17581;43.222;27.924;2023-07-29T08:23:38;100416.66;;;28.23;43.55
30875;BME280;17581;43.222;27.924;2023-07-29T08:26:04;100443.78;;;28.49;42.93
30875;BME280;17581;43.222;27.924;2023-07-29T08:28:32;100441.94;;;28.54;42.27
30875;BME280;17581;43.222;27.924;2023-07-29T08:30:58;100435.06;;;28.57;41.13
30875;BME280;17581;43.222;27.924;2023-07-29T08:33:24;100421.84;;;28.59;41.18
30875;BME280;17581;43.222;27.924;2023-07-29T08:35:50;100405.25;;;28.59;41.06
30875;BME280;17581;43.222;27.924;2023-07-29T08:38:16;100413.09;;;28.50;42.12
30875;BME280;17581;43.222;27.924;2023-07-29T08:41:14;100411.22;;;28.39;42.82
30875;BME280;17581;43.222;27.924;2023-07-29T08:44:02;100380.84;;;28.28;42.50
30875;BME280;17581;43.222;27.924;2023-07-29T08:46:30;100401.34;;;28.43;43.73
30875;BME280;17581;43.222;27.924;2023-07-29T08:48:55;100407.31;;;28.52;44.99
30875;BME280;17581;43.222;27.924;2023-07-29T08:51:23;100401.03;;;28.56;47.15
30875;BME280;17581;43.222;27.924;2023-07-29T08:53:49;100396.59;;;28.55;47.09
30875;BME280;17581;43.222;27.924;2023-07-29T08:56:15;100393.56;;;28.57;47.50
30875;BME280;17581;43.222;27.924;2023-07-29T08:58:41;100397.03;;;28.64;46.60
30875;BME280;17581;43.222;27.924;2023-07-29T09:01:07;100389.03;;;28.51;46.47
30875;BME280;17581;43.222;27.924;2023-07-29T09:03:32;100379.72;;;28.57;46.84
30875;BME280;17581;43.222;27.924;2023-07-29T09:05:58;100389.81;;;28.63;47.13
30875;BME280;17581;43.222;27.924;2023-07-29T09:08:27;100393.06;;;28.60;46.49
30875;BME280;17581;43.222;27.924;2023-07-29T09:10:54;100385.63;;;28.60;46.44
30875;BME280;17581;43.222;27.924;2023-07-29T09:13:21;100385.75;;;28.54;46.96
30875;BME280;17581;43.222;27.924;2023-07-29T09:15:46;100328.56;;;28.15;46.66
30875;BME280;17581;43.222;27.924;2023-07-29T09:18:15;100381.91;;;28.55;46.82
30875;BME280;17581;43.222;27.924;2023-07-29T09:20:41;100383.75;;;28.49;46.27
30875;BME280;17581;43.222;27.924;2023-07-29T09:23:08;100381.13;;;28.43;46.49
30875;BME280;17581;43.222;27.924;2023-07-29T09:25:37;100361.03;;;28.19;47.91
30875;BME280;17581;43.222;27.924;2023-07-29T09:28:11;100374.81;;;28.31;48.71
30875;BME280;17581;43.222;27.924;2023-07-29T09:30:41;100381.31;;;28.25;50.59
30875;BME280;17581;43.222;27.924;2023-07-29T09:33:08;100364.38;;;28.21;50.43
30875;BME280;17581;43.222;27.924;2023-07-29T09:35:35;100378.84;;;28.40;51.17
30875;BME280;17581;43.222;27.924;2023-07-29T09:38:02;100380.22;;;28.54;50.18
30875;BME280;17581;43.222;27.924;2023-07-29T09:40:34;100375.31;;;28.56;49.08
30875;BME280;17581;43.222;27.924;2023-07-29T09:43:00;100362.13;;;28.63;50.03
30875;BME280;17581;43.222;27.924;2023-07-29T09:45:26;100352.28;;;28.67;50.33
30875;BME280;17581;43.222;27.924;2023-07-29T09:47:53;100373.69;;;28.88;49.96
30875;BME280;17581;43.222;27.924;2023-07-29T09:50:23;100372.09;;;28.92;49.84
30875;BME280;17581;43.222;27.924;2023-07-29T09:52:50;100375.44;;;28.94;50.37
30875;BME280;17581;43.222;27.924;2023-07-29T09:55:23;100370.34;;;28.86;49.95
30875;BME280;17581;43.222;27.924;2023-07-29T09:58:01;100373.63;;;28.83;50.74
30875;BME280;17581;43.222;27.924;2023-07-29T10:00:32;100382.81;;;28.72;50.70
30875;BME280;17581;43.222;27.924;2023-07-29T10:02:58;100378.06;;;28.56;52.04
30875;BME280;17581;43.222;27.924;2023-07-29T10:05:26;100379.34;;;28.37;52.68
30875;BME280;17581;43.222;27.924;2023-07-29T10:07:53;100374.81;;;28.31;53.26
30875;BME280;17581;43.222;27.924;2023-07-29T10:10:20;100371.75;;;28.16;54.27
30875;BME280;17581;43.222;27.924;2023-07-29T10:12:46;100346.28;;;27.90;55.87
30875;BME280;17581;43.222;27.924;2023-07-29T10:15:12;100378.50;;;27.96;58.11
30875;BME280;17581;43.222;27.924;2023-07-29T10:17:38;100375.16;;;27.94;60.32
30875;BME280;17581;43.222;27.924;2023-07-29T10:20:06;100348.53;;;27.42;61.69
30875;BME280;17581;43.222;27.924;2023-07-29T10:22:39;100372.78;;;27.40;61.75
30875;BME280;17581;43.222;27.924;2023-07-29T10:28:00;100385.72;;;27.04;64.77
30875;BME280;17581;43.222;27.924;2023-07-29T10:30:24;100373.25;;;27.14;64.74
30875;BME280;17581;43.222;27.924;2023-07-29T10:32:52;100378.66;;;27.20;64.26
30875;BME280;17581;43.222;27.924;2023-07-29T10:35:18;100370.59;;;27.19;65.12
30875;BME280;17581;43.222;27.924;2023-07-29T10:37:44;100390.19;;;27.40;63.55
30875;BME280;17581;43.222;27.924;2023-07-29T10:40:11;100383.13;;;27.44;62.93
30875;BME280;17581;43.222;27.924;2023-07-29T10:42:37;100384.44;;;27.65;63.06
30875;BME280;17581;43.222;27.924;2023-07-29T10:45:20;100384.78;;;27.80;62.97
30875;BME280;17581;43.222;27.924;2023-07-29T10:47:46;100375.25;;;27.99;61.68
30875;BME280;17581;43.222;27.924;2023-07-29T10:50:19;100355.97;;;27.76;60.76
30875;BME280;17581;43.222;27.924;2023-07-29T10:52:49;100372.97;;;27.96;61.50
30875;BME280;17581;43.222;27.924;2023-07-29T10:55:25;100364.72;;;27.85;59.45
30875;BME280;17581;43.222;27.924;2023-07-29T10:57:51;100364.84;;;27.78;59.75
30875;BME280;17581;43.222;27.924;2023-07-29T11:00:19;100356.13;;;27.58;60.38
30875;BME280;17581;43.222;27.924;2023-07-29T11:02:58;100371.56;;;27.71;58.91
30875;BME280;17581;43.222;27.924;2023-07-29T11:05:50;100359.31;;;27.78;60.90
30875;BME280;17581;43.222;27.924;2023-07-29T11:10:58;100357.84;;;27.87;59.91
30875;BME280;17581;43.222;27.924;2023-07-29T11:13:26;100373.22;;;28.06;59.40
30875;BME280;17581;43.222;27.924;2023-07-29T11:15:54;100372.09;;;28.07;60.01
30875;BME280;17581;43.222;27.924;2023-07-29T11:18:20;100371.88;;;27.97;60.55
30875;BME280;17581;43.222;27.924;2023-07-29T11:20:46;100371.28;;;27.95;60.00
30875;BME280;17581;43.222;27.924;2023-07-29T11:23:13;100385.34;;;28.05;60.24
30875;BME280;17581;43.222;27.924;2023-07-29T11:25:39;100374.50;;;28.16;60.86
30875;BME280;17581;43.222;27.924;2023-07-29T11:28:04;100368.97;;;28.16;60.46
30875;BME280;17581;43.222;27.924;2023-07-29T11:30:30;100357.09;;;28.03;60.93
30875;BME280;17581;43.222;27.924;2023-07-29T11:32:57;100334.25;;;27.96;61.16
30875;BME280;17581;43.222;27.924;2023-07-29T11:35:23;100317.44;;;27.86;60.85
30875;BME280;17581;43.222;27.924;2023-07-29T11:37:50;100371.25;;;28.19;60.62
30875;BME280;17581;43.222;27.924;2023-07-29T11:40:21;100350.25;;;28.06;60.42
30875;BME280;17581;43.222;27.924;2023-07-29T11:42:48;100355.88;;;27.99;60.35
30875;BME280;17581;43.222;27.924;2023-07-29T11:45:15;100355.78;;;27.83;61.62
30875;BME280;17581;43.222;27.924;2023-07-29T11:47:41;100367.00;;;27.76;62.26
30875;BME280;17581;43.222;27.924;2023-07-29T11:50:08;100359.78;;;27.75;63.10
30875;BME280;17581;43.222;27.924;2023-07-29T11:52:36;100359.88;;;27.92;62.32
30875;BME280;17581;43.222;27.924;2023-07-29T11:55:02;100360.69;;;27.92;62.67
30875;BME280;17581;43.222;27.924;2023-07-29T11:57:30;100360.56;;;28.10;61.60
30875;BME280;17581;43.222;27.924;2023-07-29T11:59:55;100347.22;;;28.07;61.35
30875;BME280;17581;43.222;27.924;2023-07-29T12:02:23;100355.72;;;28.18;61.47
30875;BME280;17581;43.222;27.924;2023-07-29T12:04:49;100342.25;;;28.21;61.08
30875;BME280;17581;43.222;27.924;2023-07-29T12:07:16;100350.00;;;28.36;61.42
30875;BME280;17581;43.222;27.924;2023-07-29T12:09:43;100346.59;;;28.45;60.06
30875;BME280;17581;43.222;27.924;2023-07-29T12:12:09;100356.72;;;28.40;59.60
30875;BME280;17581;43.222;27.924;2023-07-29T12:14:35;100360.56;;;28.39;59.63
30875;BME280;17581;43.222;27.924;2023-07-29T12:17:02;100360.28;;;28.52;60.14
30875;BME280;17581;43.222;27.924;2023-07-29T12:19:36;100363.47;;;28.60;59.04
30875;BME280;17581;43.222;27.924;2023-07-29T12:22:03;100360.47;;;28.62;59.49
30875;BME280;17581;43.222;27.924;2023-07-29T12:24:30;100353.69;;;28.70;59.22
30875;BME280;17581;43.222;27.924;2023-07-29T12:26:58;100351.28;;;28.73;57.98
30875;BME280;17581;43.222;27.924;2023-07-29T12:29:23;100351.63;;;28.77;57.39
30875;BME280;17581;43.222;27.924;2023-07-29T12:31:57;100365.81;;;28.80;57.62
30875;BME280;17581;43.222;27.924;2023-07-29T12:34:25;100367.22;;;28.83;57.87
30875;BME280;17581;43.222;27.924;2023-07-29T12:36:51;100361.53;;;28.89;57.21
30875;BME280;17581;43.222;27.924;2023-07-29T12:39:21;100357.66;;;28.90;56.73
30875;BME280;17581;43.222;27.924;2023-07-29T12:41:48;100345.25;;;28.76;55.51
30875;BME280;17581;43.222;27.924;2023-07-29T12:44:14;100350.72;;;28.59;55.17
30875;BME280;17581;43.222;27.924;2023-07-29T12:46:40;100348.34;;;28.51;55.67
30875;BME280;17581;43.222;27.924;2023-07-29T12:49:06;100360.50;;;28.79;55.98
30875;BME280;17581;43.222;27.924;2023-07-29T12:51:31;100355.53;;;28.81;54.63
30875;BME280;17581;43.222;27.924;2023-07-29T12:53:57;100357.16;;;28.93;54.68